sensor_id;sensor_type;location;lat;lon;timestamp;temperature;humidity
19483;DHT22;9882;51.166;6.992;2023-01-09T00:01:46;8.30;99.90
19483;DHT22;9882;51.166;6.992;2023-01-09T00:04:15;8.30;99.90
19483;DHT22;9882;51.166;6.992;2023-01-09T00:06:44;8.40;99.90
19483;DHT22;9882;51.166;6.992;2023-01-09T00:09:14;8.40;99.90
19483;DHT22;9882;51.166;6.992;2023-01-09T00:11:42;8.30;99.90
19483;DHT22;9882;51.166;6.992;2023-01-09T00:14:11;8.30;99.90
19483;DHT22;9882;51.166;6.992;2023-01-09T00:16:39;8.30;99.90
19483;DHT22;9882;51.166;6.992;2023-01-09T00:19:08;8.30;99.90
19483;DHT22;9882;51.166;6.992;2023-01-09T00:21:37;8.10;99.90
19483;DHT22;9882;51.166;6.992;2023-01-09T00:24:06;8.10;99.90
19483;DHT22;9882;51.166;6.992;2023-01-09T00:26:36;8.00;99.90
19483;DHT22;9882;51.166;6.992;2023-01-09T00:29:09;8.00;99.90
19483;DHT22;9882;51.166;6.992;2023-01-09T00:31:38;8.10;99.90
19483;DHT22;9882;51.166;6.992;2023-01-09T00:34:07;8.10;99.90
19483;DHT22;9882;51.166;6.992;2023-01-09T00:36:36;8.00;99.90
19483;DHT22;9882;51.166;6.992;2023-01-09T00:39:05;8.00;99.90
19483;DHT22;9882;51.166;6.992;2023-01-09T00:41:38;7.90;99.90
19483;DHT22;9882;51.166;6.992;2023-01-09T00:44:23;7.90;99.90
19483;DHT22;9882;51.166;6.992;2023-01-09T00:46:56;7.90;99.90
19483;DHT22;9882;51.166;6.992;2023-01-09T00:49:31;8.10;99.90
19483;DHT22;9882;51.166;6.992;2023-01-09T00:52:01;7.80;99.90
19483;DHT22;9882;51.166;6.992;2023-01-09T00:54:31;7.80;99.90
19483;DHT22;9882;51.166;6.992;2023-01-09T00:57:02;7.80;99.90
19483;DHT22;9882;51.166;6.992;2023-01-09T00:59:32;7.70;99.90
19483;DHT22;9882;51.166;6.992;2023-01-09T01:02:04;7.80;99.90
19483;DHT22;9882;51.166;6.992;2023-01-09T01:04:39;7.70;99.90
19483;DHT22;9882;51.166;6.992;2023-01-09T01:07:25;7.70;99.90
19483;DHT22;9882;51.166;6.992;2023-01-09T01:10:20;7.90;99.90
19483;DHT22;9882;51.166;6.992;2023-01-09T01:13:22;7.90;99.90
19483;DHT22;9882;51.166;6.992;2023-01-09T01:15:51;7.80;99.90
19483;DHT22;9882;51.166;6.992;2023-01-09T01:18:19;7.80;99.90
19483;DHT22;9882;51.166;6.992;2023-01-09T01:20:49;7.50;99.90
19483;DHT22;9882;51.166;6.992;2023-01-09T01:23:19;7.60;99.90
19483;DHT22;9882;51.166;6.992;2023-01-09T01:25:49;7.90;99.90
19483;DHT22;9882;51.166;6.992;2023-01-09T01:28:45;7.80;99.90
19483;DHT22;9882;51.166;6.992;2023-01-09T01:31:16;7.70;99.90
19483;DHT22;9882;51.166;6.992;2023-01-09T01:33:45;7.80;99.90
19483;DHT22;9882;51.166;6.992;2023-01-09T01:36:15;7.90;99.90
19483;DHT22;9882;51.166;6.992;2023-01-09T01:38:44;7.60;99.90
19483;DHT22;9882;51.166;6.992;2023-01-09T01:41:22;7.60;99.90
19483;DHT22;9882;51.166;6.992;2023-01-09T01:44:05;7.70;99.90
19483;DHT22;9882;51.166;6.992;2023-01-09T01:46:36;7.60;99.90
19483;DHT22;9882;51.166;6.992;2023-01-09T01:49:31;7.70;99.90
19483;DHT22;9882;51.166;6.992;2023-01-09T01:52:33;7.90;99.90
19483;DHT22;9882;51.166;6.992;2023-01-09T01:55:04;7.90;99.90
19483;DHT22;9882;51.166;6.992;2023-01-09T01:57:34;8.00;99.90
19483;DHT22;9882;51.166;6.992;2023-01-09T02:00:08;7.90;99.90
19483;DHT22;9882;51.166;6.992;2023-01-09T02:06:35;7.90;99.90
19483;DHT22;9882;51.166;6.992;2023-01-09T02:09:05;7.90;99.90
19483;DHT22;9882;51.166;6.992;2023-01-09T02:11:35;7.80;99.90
19483;DHT22;9882;51.166;6.992;2023-01-09T02:14:33;7.80;99.90
19483;DHT22;9882;51.166;6.992;2023-01-09T02:18:05;7.80;99.90
19483;DHT22;9882;51.166;6.992;2023-01-09T02:20:52;7.90;99.90
19483;DHT22;9882;51.166;6.992;2023-01-09T02:24:04;8.00;99.90
19483;DHT22;9882;51.166;6.992;2023-01-09T02:26:50;8.10;99.90
19483;DHT22;9882;51.166;6.992;2023-01-09T02:33:06;7.80;99.90
19483;DHT22;9882;51.166;6.992;2023-01-09T02:36:02;8.00;99.90
19483;DHT22;9882;51.166;6.992;2023-01-09T02:38:41;7.90;99.90
19483;DHT22;9882;51.166;6.992;2023-01-09T02:41:31;8.10;99.90
19483;DHT22;9882;51.166;6.992;2023-01-09T02:44:35;7.90;99.90
19483;DHT22;9882;51.166;6.992;2023-01-09T02:47:36;8.00;99.90
19483;DHT22;9882;51.166;6.992;2023-01-09T02:50:11;8.00;99.90
19483;DHT22;9882;51.166;6.992;2023-01-09T02:53:07;8.10;99.90
19483;DHT22;9882;51.166;6.992;2023-01-09T02:56:01;8.00;99.90
19483;DHT22;9882;51.166;6.992;2023-01-09T02:59:45;7.60;99.90
19483;DHT22;9882;51.166;6.992;2023-01-09T03:02:41;7.40;99.90
19483;DHT22;9882;51.166;6.992;2023-01-09T03:05:21;7.30;99.90
19483;DHT22;9882;51.166;6.992;2023-01-09T03:08:03;7.50;99.90
19483;DHT22;9882;51.166;6.992;2023-01-09T03:10:38;7.60;99.90
19483;DHT22;9882;51.166;6.992;2023-01-09T03:17:31;7.40;99.90
19483;DHT22;9882;51.166;6.992;2023-01-09T03:20:04;7.40;99.90
19483;DHT22;9882;51.166;6.992;2023-01-09T03:31:08;7.40;99.90
19483;DHT22;9882;51.166;6.992;2023-01-09T03:33:37;7.20;99.90
19483;DHT22;9882;51.166;6.992;2023-01-09T03:43:20;7.30;99.90
19483;DHT22;9882;51.166;6.992;2023-01-09T03:45:50;7.30;99.90
19483;DHT22;9882;51.166;6.992;2023-01-09T03:48:21;7.30;99.90
19483;DHT22;9882;51.166;6.992;2023-01-09T03:58:10;7.20;99.90
19483;DHT22;9882;51.166;6.992;2023-01-09T04:00:39;7.40;99.90
19483;DHT22;9882;51.166;6.992;2023-01-09T04:07:49;7.20;99.90
19483;DHT22;9882;51.166;6.992;2023-01-09T04:10:19;7.30;99.90
19483;DHT22;9882;51.166;6.992;2023-01-09T04:12:49;7.30;99.90
19483;DHT22;9882;51.166;6.992;2023-01-09T04:15:19;7.30;99.90
19483;DHT22;9882;51.166;6.992;2023-01-09T04:17:50;7.30;99.90
19483;DHT22;9882;51.166;6.992;2023-01-09T04:20:53;7.30;99.90
19483;DHT22;9882;51.166;6.992;2023-01-09T04:26:43;7.40;99.90
19483;DHT22;9882;51.166;6.992;2023-01-09T04:29:11;7.10;99.90
19483;DHT22;9882;51.166;6.992;2023-01-09T04:31:40;6.90;99.90
19483;DHT22;9882;51.166;6.992;2023-01-09T04:34:08;7.10;99.90
19483;DHT22;9882;51.166;6.992;2023-01-09T04:36:37;7.10;99.90
19483;DHT22;9882;51.166;6.992;2023-01-09T04:39:06;7.40;99.90
19483;DHT22;9882;51.166;6.992;2023-01-09T04:41:35;7.30;99.90
19483;DHT22;9882;51.166;6.992;2023-01-09T04:44:21;7.30;99.90
19483;DHT22;9882;51.166;6.992;2023-01-09T04:46:53;7.50;99.90
19483;DHT22;9882;51.166;6.992;2023-01-09T04:49:22;7.50;99.90
19483;DHT22;9882;51.166;6.992;2023-01-09T04:51:51;7.40;99.90
19483;DHT22;9882;51.166;6.992;2023-01-09T04:54:20;7.20;99.90
19483;DHT22;9882;51.166;6.992;2023-01-09T04:56:49;7.30;99.90
19483;DHT22;9882;51.166;6.992;2023-01-09T04:59:19;7.30;99.90
19483;DHT22;9882;51.166;6.992;2023-01-09T05:01:48;7.60;99.90
19483;DHT22;9882;51.166;6.992;2023-01-09T05:04:18;7.50;99.90
19483;DHT22;9882;51.166;6.992;2023-01-09T05:06:46;7.60;99.90
19483;DHT22;9882;51.166;6.992;2023-01-09T05:09:15;7.50;99.90
19483;DHT22;9882;51.166;6.992;2023-01-09T05:11:44;7.50;99.90
19483;DHT22;9882;51.166;6.992;2023-01-09T05:14:12;7.40;99.90
19483;DHT22;9882;51.166;6.992;2023-01-09T05:16:42;7.50;99.90
19483;DHT22;9882;51.166;6.992;2023-01-09T05:19:11;7.40;99.90
19483;DHT22;9882;51.166;6.992;2023-01-09T05:21:39;7.20;99.90
19483;DHT22;9882;51.166;6.992;2023-01-09T05:24:08;7.40;99.90
19483;DHT22;9882;51.166;6.992;2023-01-09T05:26:37;7.20;99.90
19483;DHT22;9882;51.166;6.992;2023-01-09T05:29:05;7.10;99.90
19483;DHT22;9882;51.166;6.992;2023-01-09T05:31:34;6.90;99.90
19483;DHT22;9882;51.166;6.992;2023-01-09T05:34:04;7.00;99.90
19483;DHT22;9882;51.166;6.992;2023-01-09T05:36:32;6.80;99.90
19483;DHT22;9882;51.166;6.992;2023-01-09T05:39:01;6.80;99.90
19483;DHT22;9882;51.166;6.992;2023-01-09T05:41:30;7.00;99.90
19483;DHT22;9882;51.166;6.992;2023-01-09T05:43:58;7.00;99.90
19483;DHT22;9882;51.166;6.992;2023-01-09T05:46:27;6.90;99.90
19483;DHT22;9882;51.166;6.992;2023-01-09T05:48:55;7.00;99.90
19483;DHT22;9882;51.166;6.992;2023-01-09T05:51:25;6.80;99.90
19483;DHT22;9882;51.166;6.992;2023-01-09T05:53:54;7.00;99.90
19483;DHT22;9882;51.166;6.992;2023-01-09T05:56:22;6.90;99.90
19483;DHT22;9882;51.166;6.992;2023-01-09T05:58:51;6.90;99.90
19483;DHT22;9882;51.166;6.992;2023-01-09T06:01:19;6.80;99.90
19483;DHT22;9882;51.166;6.992;2023-01-09T06:03:50;6.90;99.90
19483;DHT22;9882;51.166;6.992;2023-01-09T06:06:18;6.80;99.90
19483;DHT22;9882;51.166;6.992;2023-01-09T06:08:48;6.80;99.90
19483;DHT22;9882;51.166;6.992;2023-01-09T06:11:16;6.90;99.90
19483;DHT22;9882;51.166;6.992;2023-01-09T06:13:45;6.80;99.90
19483;DHT22;9882;51.166;6.992;2023-01-09T06:16:13;6.80;99.90
19483;DHT22;9882;51.166;6.992;2023-01-09T06:18:42;6.90;99.90
19483;DHT22;9882;51.166;6.992;2023-01-09T06:21:10;7.10;99.90
19483;DHT22;9882;51.166;6.992;2023-01-09T06:23:39;7.10;99.90
19483;DHT22;9882;51.166;6.992;2023-01-09T06:26:09;7.00;99.90
19483;DHT22;9882;51.166;6.992;2023-01-09T06:28:37;7.10;99.90
19483;DHT22;9882;51.166;6.992;2023-01-09T06:31:06;7.00;99.90
19483;DHT22;9882;51.166;6.992;2023-01-09T06:33:34;7.10;99.90
19483;DHT22;9882;51.166;6.992;2023-01-09T06:36:03;7.20;99.90
19483;DHT22;9882;51.166;6.992;2023-01-09T06:38:32;7.00;99.90
19483;DHT22;9882;51.166;6.992;2023-01-09T06:41:01;7.10;99.90
19483;DHT22;9882;51.166;6.992;2023-01-09T06:43:30;7.00;99.90
19483;DHT22;9882;51.166;6.992;2023-01-09T06:45:59;7.00;99.90
19483;DHT22;9882;51.166;6.992;2023-01-09T06:48:28;7.00;99.90
19483;DHT22;9882;51.166;6.992;2023-01-09T06:50:56;7.00;99.90
19483;DHT22;9882;51.166;6.992;2023-01-09T06:53:24;7.10;99.90
19483;DHT22;9882;51.166;6.992;2023-01-09T06:55:53;7.20;99.90
19483;DHT22;9882;51.166;6.992;2023-01-09T06:58:21;7.20;99.90
19483;DHT22;9882;51.166;6.992;2023-01-09T07:00:51;7.20;99.90
19483;DHT22;9882;51.166;6.992;2023-01-09T07:03:21;7.30;99.90
19483;DHT22;9882;51.166;6.992;2023-01-09T07:05:50;7.30;99.90
19483;DHT22;9882;51.166;6.992;2023-01-09T07:08:19;7.20;99.90
19483;DHT22;9882;51.166;6.992;2023-01-09T07:10:48;7.30;99.90
19483;DHT22;9882;51.166;6.992;2023-01-09T07:13:16;7.20;99.90
19483;DHT22;9882;51.166;6.992;2023-01-09T07:15:45;7.20;99.90
19483;DHT22;9882;51.166;6.992;2023-01-09T07:18:17;7.30;99.90
19483;DHT22;9882;51.166;6.992;2023-01-09T07:20:45;7.20;99.90
19483;DHT22;9882;51.166;6.992;2023-01-09T07:23:14;7.30;99.90
19483;DHT22;9882;51.166;6.992;2023-01-09T07:25:45;7.40;99.90
19483;DHT22;9882;51.166;6.992;2023-01-09T07:28:14;7.40;99.90
19483;DHT22;9882;51.166;6.992;2023-01-09T07:30:42;7.60;99.90
19483;DHT22;9882;51.166;6.992;2023-01-09T07:33:11;7.60;99.90
19483;DHT22;9882;51.166;6.992;2023-01-09T07:35:41;7.80;99.90
19483;DHT22;9882;51.166;6.992;2023-01-09T07:38:10;8.00;99.90
19483;DHT22;9882;51.166;6.992;2023-01-09T07:40:39;8.00;99.90
19483;DHT22;9882;51.166;6.992;2023-01-09T07:43:07;8.10;99.90
19483;DHT22;9882;51.166;6.992;2023-01-09T07:45:36;8.00;99.90
19483;DHT22;9882;51.166;6.992;2023-01-09T07:48:05;7.90;99.90
19483;DHT22;9882;51.166;6.992;2023-01-09T07:50:34;7.90;99.90
19483;DHT22;9882;51.166;6.992;2023-01-09T07:53:04;7.80;99.90
19483;DHT22;9882;51.166;6.992;2023-01-09T07:55:34;7.70;99.90
19483;DHT22;9882;51.166;6.992;2023-01-09T07:58:02;7.90;99.90
19483;DHT22;9882;51.166;6.992;2023-01-09T08:00:31;7.80;99.90
19483;DHT22;9882;51.166;6.992;2023-01-09T08:03:00;7.80;99.90
19483;DHT22;9882;51.166;6.992;2023-01-09T08:05:28;7.90;99.90
19483;DHT22;9882;51.166;6.992;2023-01-09T08:07:57;8.10;99.90
19483;DHT22;9882;51.166;6.992;2023-01-09T08:10:27;8.20;99.90
19483;DHT22;9882;51.166;6.992;2023-01-09T08:12:56;8.10;99.90
19483;DHT22;9882;51.166;6.992;2023-01-09T08:15:24;8.10;99.90
19483;DHT22;9882;51.166;6.992;2023-01-09T08:17:53;8.10;99.90
19483;DHT22;9882;51.166;6.992;2023-01-09T08:20:22;8.00;99.90
19483;DHT22;9882;51.166;6.992;2023-01-09T08:22:50;8.00;99.90
19483;DHT22;9882;51.166;6.992;2023-01-09T08:25:20;8.10;99.90
19483;DHT22;9882;51.166;6.992;2023-01-09T08:27:50;8.10;99.90
19483;DHT22;9882;51.166;6.992;2023-01-09T08:30:20;8.10;99.90
19483;DHT22;9882;51.166;6.992;2023-01-09T08:32:50;8.00;99.90
19483;DHT22;9882;51.166;6.992;2023-01-09T08:35:19;8.00;99.90
19483;DHT22;9882;51.166;6.992;2023-01-09T08:37:48;8.10;99.90
19483;DHT22;9882;51.166;6.992;2023-01-09T08:40:17;7.90;99.90
19483;DHT22;9882;51.166;6.992;2023-01-09T08:42:46;7.80;99.90
19483;DHT22;9882;51.166;6.992;2023-01-09T08:45:34;7.90;99.90
19483;DHT22;9882;51.166;6.992;2023-01-09T08:48:20;7.80;99.90
19483;DHT22;9882;51.166;6.992;2023-01-09T08:50:49;7.80;99.90
19483;DHT22;9882;51.166;6.992;2023-01-09T08:53:18;7.90;99.90
19483;DHT22;9882;51.166;6.992;2023-01-09T08:55:47;8.00;99.90
19483;DHT22;9882;51.166;6.992;2023-01-09T08:58:16;8.00;99.90
19483;DHT22;9882;51.166;6.992;2023-01-09T09:00:48;7.90;99.90
19483;DHT22;9882;51.166;6.992;2023-01-09T09:03:17;8.00;99.90
19483;DHT22;9882;51.166;6.992;2023-01-09T09:05:45;7.70;99.90
19483;DHT22;9882;51.166;6.992;2023-01-09T09:08:14;7.70;99.90
19483;DHT22;9882;51.166;6.992;2023-01-09T09:10:43;7.70;99.90
19483;DHT22;9882;51.166;6.992;2023-01-09T09:13:11;7.70;99.90
19483;DHT22;9882;51.166;6.992;2023-01-09T09:15:40;7.70;99.90
19483;DHT22;9882;51.166;6.992;2023-01-09T09:18:10;7.70;99.90
19483;DHT22;9882;51.166;6.992;2023-01-09T09:20:39;7.70;99.90
19483;DHT22;9882;51.166;6.992;2023-01-09T09:23:08;7.80;99.90
19483;DHT22;9882;51.166;6.992;2023-01-09T09:25:36;7.80;99.90
19483;DHT22;9882;51.166;6.992;2023-01-09T09:28:06;7.70;99.90
19483;DHT22;9882;51.166;6.992;2023-01-09T09:30:34;7.80;99.90
19483;DHT22;9882;51.166;6.992;2023-01-09T09:33:05;7.70;99.90
19483;DHT22;9882;51.166;6.992;2023-01-09T09:35:35;7.70;99.90
19483;DHT22;9882;51.166;6.992;2023-01-09T09:38:04;7.70;99.90
19483;DHT22;9882;51.166;6.992;2023-01-09T09:40:57;7.80;99.90
19483;DHT22;9882;51.166;6.992;2023-01-09T09:43:51;7.70;99.90
19483;DHT22;9882;51.166;6.992;2023-01-09T09:46:43;7.70;99.90
19483;DHT22;9882;51.166;6.992;2023-01-09T09:49:18;7.70;99.90
19483;DHT22;9882;51.166;6.992;2023-01-09T09:51:55;7.70;99.90
19483;DHT22;9882;51.166;6.992;2023-01-09T09:54:33;7.70;99.90
19483;DHT22;9882;51.166;6.992;2023-01-09T09:57:04;7.60;99.90
19483;DHT22;9882;51.166;6.992;2023-01-09T09:59:35;7.60;99.90
19483;DHT22;9882;51.166;6.992;2023-01-09T10:02:20;7.60;99.90
19483;DHT22;9882;51.166;6.992;2023-01-09T10:04:55;7.60;99.90
19483;DHT22;9882;51.166;6.992;2023-01-09T10:07:40;7.70;99.90
19483;DHT22;9882;51.166;6.992;2023-01-09T10:10:15;7.60;99.90
19483;DHT22;9882;51.166;6.992;2023-01-09T10:12:50;7.50;99.90
19483;DHT22;9882;51.166;6.992;2023-01-09T10:15:29;7.50;99.90
19483;DHT22;9882;51.166;6.992;2023-01-09T10:18:13;7.50;99.90
19483;DHT22;9882;51.166;6.992;2023-01-09T10:20:53;7.50;99.90
19483;DHT22;9882;51.166;6.992;2023-01-09T10:26:37;7.60;99.90
19483;DHT22;9882;51.166;6.992;2023-01-09T10:29:35;7.60;99.90
19483;DHT22;9882;51.166;6.992;2023-01-09T10:32:23;7.60;99.90
19483;DHT22;9882;51.166;6.992;2023-01-09T10:35:05;7.70;99.90
19483;DHT22;9882;51.166;6.992;2023-01-09T10:37:38;7.70;99.90
19483;DHT22;9882;51.166;6.992;2023-01-09T10:40:17;7.70;99.90
19483;DHT22;9882;51.166;6.992;2023-01-09T10:42:48;7.70;99.90
19483;DHT22;9882;51.166;6.992;2023-01-09T10:45:22;7.80;99.90
19483;DHT22;9882;51.166;6.992;2023-01-09T10:47:54;7.80;99.90
19483;DHT22;9882;51.166;6.992;2023-01-09T10:50:28;7.80;99.90
19483;DHT22;9882;51.166;6.992;2023-01-09T10:53:00;7.80;99.90
19483;DHT22;9882;51.166;6.992;2023-01-09T10:55:37;7.80;99.90
19483;DHT22;9882;51.166;6.992;2023-01-09T10:58:10;7.90;99.90
19483;DHT22;9882;51.166;6.992;2023-01-09T11:00:40;7.90;99.90
19483;DHT22;9882;51.166;6.992;2023-01-09T11:03:11;7.90;99.90
19483;DHT22;9882;51.166;6.992;2023-01-09T11:05:41;7.80;99.90
19483;DHT22;9882;51.166;6.992;2023-01-09T11:08:17;7.90;99.90
19483;DHT22;9882;51.166;6.992;2023-01-09T11:10:51;7.90;99.90
19483;DHT22;9882;51.166;6.992;2023-01-09T11:13:21;7.90;99.90
19483;DHT22;9882;51.166;6.992;2023-01-09T11:16:16;7.90;99.90
19483;DHT22;9882;51.166;6.992;2023-01-09T11:18:50;7.90;99.90
19483;DHT22;9882;51.166;6.992;2023-01-09T11:21:30;7.90;99.90
19483;DHT22;9882;51.166;6.992;2023-01-09T11:24:27;7.90;99.90
19483;DHT22;9882;51.166;6.992;2023-01-09T11:27:19;8.00;99.90
19483;DHT22;9882;51.166;6.992;2023-01-09T11:30:14;7.90;99.90
19483;DHT22;9882;51.166;6.992;2023-01-09T11:32:44;7.90;99.90
19483;DHT22;9882;51.166;6.992;2023-01-09T11:35:17;7.90;99.90
19483;DHT22;9882;51.166;6.992;2023-01-09T11:37:48;7.90;99.90
19483;DHT22;9882;51.166;6.992;2023-01-09T11:40:24;8.00;99.90
19483;DHT22;9882;51.166;6.992;2023-01-09T11:43:11;8.00;99.90
19483;DHT22;9882;51.166;6.992;2023-01-09T11:45:44;8.10;99.90
19483;DHT22;9882;51.166;6.992;2023-01-09T11:48:29;8.10;99.90
19483;DHT22;9882;51.166;6.992;2023-01-09T11:50:59;8.10;99.90
19483;DHT22;9882;51.166;6.992;2023-01-09T11:53:28;8.10;99.90
19483;DHT22;9882;51.166;6.992;2023-01-09T11:55:58;8.20;99.90
19483;DHT22;9882;51.166;6.992;2023-01-09T11:58:32;8.20;99.90
19483;DHT22;9882;51.166;6.992;2023-01-09T12:01:09;8.10;99.90
19483;DHT22;9882;51.166;6.992;2023-01-09T12:04:04;8.10;99.90
19483;DHT22;9882;51.166;6.992;2023-01-09T12:06:42;8.10;99.90
19483;DHT22;9882;51.166;6.992;2023-01-09T12:09:15;8.10;99.90
19483;DHT22;9882;51.166;6.992;2023-01-09T12:11:50;8.10;99.90
19483;DHT22;9882;51.166;6.992;2023-01-09T12:14:47;8.10;99.90
19483;DHT22;9882;51.166;6.992;2023-01-09T12:17:52;8.00;99.90
19483;DHT22;9882;51.166;6.992;2023-01-09T12:20:32;8.00;99.90
19483;DHT22;9882;51.166;6.992;2023-01-09T12:23:19;8.00;99.90
19483;DHT22;9882;51.166;6.992;2023-01-09T12:25:59;8.00;99.90
19483;DHT22;9882;51.166;6.992;2023-01-09T12:28:54;8.00;99.90
19483;DHT22;9882;51.166;6.992;2023-01-09T12:31:39;8.00;99.90
19483;DHT22;9882;51.166;6.992;2023-01-09T12:34:24;8.00;99.90
19483;DHT22;9882;51.166;6.992;2023-01-09T12:37:04;8.00;99.90
19483;DHT22;9882;51.166;6.992;2023-01-09T12:39:49;7.90;99.90
19483;DHT22;9882;51.166;6.992;2023-01-09T12:42:35;8.00;99.90
19483;DHT22;9882;51.166;6.992;2023-01-09T12:45:25;8.00;99.90
19483;DHT22;9882;51.166;6.992;2023-01-09T12:48:01;8.00;99.90
19483;DHT22;9882;51.166;6.992;2023-01-09T12:50:42;8.00;99.90
19483;DHT22;9882;51.166;6.992;2023-01-09T12:53:20;7.90;99.90
19483;DHT22;9882;51.166;6.992;2023-01-09T12:55:56;7.90;99.90
19483;DHT22;9882;51.166;6.992;2023-01-09T12:58:32;7.90;99.90
19483;DHT22;9882;51.166;6.992;2023-01-09T13:01:04;7.90;99.90
19483;DHT22;9882;51.166;6.992;2023-01-09T13:03:40;7.90;99.90
19483;DHT22;9882;51.166;6.992;2023-01-09T13:06:15;8.00;99.90
19483;DHT22;9882;51.166;6.992;2023-01-09T13:08:48;8.00;99.90
19483;DHT22;9882;51.166;6.992;2023-01-09T13:11:23;7.80;99.90
19483;DHT22;9882;51.166;6.992;2023-01-09T13:13:58;7.90;99.90
19483;DHT22;9882;51.166;6.992;2023-01-09T13:16:32;7.80;99.90
19483;DHT22;9882;51.166;6.992;2023-01-09T13:19:09;7.80;99.90
19483;DHT22;9882;51.166;6.992;2023-01-09T13:21:40;7.80;99.90
19483;DHT22;9882;51.166;6.992;2023-01-09T13:24:16;7.90;99.90
19483;DHT22;9882;51.166;6.992;2023-01-09T13:26:48;7.80;99.90
19483;DHT22;9882;51.166;6.992;2023-01-09T13:29:22;7.90;99.90
19483;DHT22;9882;51.166;6.992;2023-01-09T13:32:16;7.90;99.90
19483;DHT22;9882;51.166;6.992;2023-01-09T13:34:52;7.90;99.90
19483;DHT22;9882;51.166;6.992;2023-01-09T13:37:26;8.00;99.90
19483;DHT22;9882;51.166;6.992;2023-01-09T13:39:56;8.00;99.90
19483;DHT22;9882;51.166;6.992;2023-01-09T13:42:26;8.10;99.90
19483;DHT22;9882;51.166;6.992;2023-01-09T13:53:47;8.00;99.90
19483;DHT22;9882;51.166;6.992;2023-01-09T13:56:19;7.80;99.90
19483;DHT22;9882;51.166;6.992;2023-01-09T13:58:58;7.70;99.90
19483;DHT22;9882;51.166;6.992;2023-01-09T14:01:44;7.70;99.90
19483;DHT22;9882;51.166;6.992;2023-01-09T14:04:42;7.80;99.90
19483;DHT22;9882;51.166;6.992;2023-01-09T14:07:29;7.90;99.90
19483;DHT22;9882;51.166;6.992;2023-01-09T14:10:01;7.90;99.90
19483;DHT22;9882;51.166;6.992;2023-01-09T14:12:32;7.80;99.90
19483;DHT22;9882;51.166;6.992;2023-01-09T14:15:23;7.90;99.90
19483;DHT22;9882;51.166;6.992;2023-01-09T14:17:58;7.80;99.90
19483;DHT22;9882;51.166;6.992;2023-01-09T14:20:31;7.80;99.90
19483;DHT22;9882;51.166;6.992;2023-01-09T14:23:01;7.80;99.90
19483;DHT22;9882;51.166;6.992;2023-01-09T14:25:51;7.80;99.90
19483;DHT22;9882;51.166;6.992;2023-01-09T14:28:21;7.70;99.90
19483;DHT22;9882;51.166;6.992;2023-01-09T14:31:06;7.70;99.90
19483;DHT22;9882;51.166;6.992;2023-01-09T14:33:36;7.70;99.90
19483;DHT22;9882;51.166;6.992;2023-01-09T14:36:13;7.70;99.90
19483;DHT22;9882;51.166;6.992;2023-01-09T14:38:46;7.60;99.90
19483;DHT22;9882;51.166;6.992;2023-01-09T14:41:23;7.70;99.90
19483;DHT22;9882;51.166;6.992;2023-01-09T14:44:26;7.70;99.90
19483;DHT22;9882;51.166;6.992;2023-01-09T14:46:59;7.70;99.90
19483;DHT22;9882;51.166;6.992;2023-01-09T14:49:33;7.60;99.90
19483;DHT22;9882;51.166;6.992;2023-01-09T14:52:06;7.70;99.90
19483;DHT22;9882;51.166;6.992;2023-01-09T14:54:40;7.60;99.90
19483;DHT22;9882;51.166;6.992;2023-01-09T14:57:27;7.70;99.90
19483;DHT22;9882;51.166;6.992;2023-01-09T14:59:57;7.60;99.90
19483;DHT22;9882;51.166;6.992;2023-01-09T15:02:32;7.70;99.90
19483;DHT22;9882;51.166;6.992;2023-01-09T15:05:06;7.60;99.90
19483;DHT22;9882;51.166;6.992;2023-01-09T15:07:38;7.70;99.90
19483;DHT22;9882;51.166;6.992;2023-01-09T15:10:15;7.70;99.90
19483;DHT22;9882;51.166;6.992;2023-01-09T15:12:47;7.70;99.90
19483;DHT22;9882;51.166;6.992;2023-01-09T15:15:17;7.60;99.90
19483;DHT22;9882;51.166;6.992;2023-01-09T15:17:55;7.60;99.90
19483;DHT22;9882;51.166;6.992;2023-01-09T15:20:32;7.60;99.90
19483;DHT22;9882;51.166;6.992;2023-01-09T15:23:01;7.50;99.90
19483;DHT22;9882;51.166;6.992;2023-01-09T15:25:33;7.60;99.90
19483;DHT22;9882;51.166;6.992;2023-01-09T15:28:25;7.50;99.90
19483;DHT22;9882;51.166;6.992;2023-01-09T15:31:03;7.60;99.90
19483;DHT22;9882;51.166;6.992;2023-01-09T15:33:33;7.50;99.90
19483;DHT22;9882;51.166;6.992;2023-01-09T15:36:10;7.60;99.90
19483;DHT22;9882;51.166;6.992;2023-01-09T15:38:41;7.60;99.90
19483;DHT22;9882;51.166;6.992;2023-01-09T15:41:13;7.80;99.90
19483;DHT22;9882;51.166;6.992;2023-01-09T15:44:14;7.60;99.90
19483;DHT22;9882;51.166;6.992;2023-01-09T15:46:44;7.60;99.90
19483;DHT22;9882;51.166;6.992;2023-01-09T15:49:17;7.70;99.90
19483;DHT22;9882;51.166;6.992;2023-01-09T15:51:46;7.70;99.90
19483;DHT22;9882;51.166;6.992;2023-01-09T15:54:17;7.60;99.90
19483;DHT22;9882;51.166;6.992;2023-01-09T15:56:48;7.60;99.90
19483;DHT22;9882;51.166;6.992;2023-01-09T15:59:25;7.70;99.90
19483;DHT22;9882;51.166;6.992;2023-01-09T16:01:56;7.70;99.90
19483;DHT22;9882;51.166;6.992;2023-01-09T16:04:40;7.60;99.90
19483;DHT22;9882;51.166;6.992;2023-01-09T16:07:12;7.40;99.90
19483;DHT22;9882;51.166;6.992;2023-01-09T16:09:44;7.40;99.90
19483;DHT22;9882;51.166;6.992;2023-01-09T16:12:17;7.60;99.90
19483;DHT22;9882;51.166;6.992;2023-01-09T16:14:50;7.40;99.90
19483;DHT22;9882;51.166;6.992;2023-01-09T16:17:23;7.40;99.90
19483;DHT22;9882;51.166;6.992;2023-01-09T16:19:54;7.40;99.90
19483;DHT22;9882;51.166;6.992;2023-01-09T16:22:25;7.30;99.90
19483;DHT22;9882;51.166;6.992;2023-01-09T16:24:58;7.40;99.90
19483;DHT22;9882;51.166;6.992;2023-01-09T16:27:29;7.40;99.90
19483;DHT22;9882;51.166;6.992;2023-01-09T16:30:01;7.40;99.90
19483;DHT22;9882;51.166;6.992;2023-01-09T16:32:32;7.40;99.90
19483;DHT22;9882;51.166;6.992;2023-01-09T16:35:04;7.40;99.90
19483;DHT22;9882;51.166;6.992;2023-01-09T16:37:33;7.40;99.90
19483;DHT22;9882;51.166;6.992;2023-01-09T16:40:25;7.30;99.90
19483;DHT22;9882;51.166;6.992;2023-01-09T16:42:57;7.30;99.90
19483;DHT22;9882;51.166;6.992;2023-01-09T16:45:33;7.30;99.90
19483;DHT22;9882;51.166;6.992;2023-01-09T16:48:10;7.30;99.90
19483;DHT22;9882;51.166;6.992;2023-01-09T16:50:39;7.20;99.90
19483;DHT22;9882;51.166;6.992;2023-01-09T16:53:13;7.00;99.90
19483;DHT22;9882;51.166;6.992;2023-01-09T16:55:42;7.00;99.90
19483;DHT22;9882;51.166;6.992;2023-01-09T16:58:12;7.00;99.90
19483;DHT22;9882;51.166;6.992;2023-01-09T17:00:45;7.00;99.90
19483;DHT22;9882;51.166;6.992;2023-01-09T17:03:14;6.80;99.90
19483;DHT22;9882;51.166;6.992;2023-01-09T17:05:45;6.70;99.90
19483;DHT22;9882;51.166;6.992;2023-01-09T17:08:22;6.80;99.90
19483;DHT22;9882;51.166;6.992;2023-01-09T17:10:56;6.90;99.90
19483;DHT22;9882;51.166;6.992;2023-01-09T17:13:25;6.80;99.90
19483;DHT22;9882;51.166;6.992;2023-01-09T17:15:56;6.80;99.90
19483;DHT22;9882;51.166;6.992;2023-01-09T17:18:26;6.90;99.90
19483;DHT22;9882;51.166;6.992;2023-01-09T17:20:56;7.10;99.90
19483;DHT22;9882;51.166;6.992;2023-01-09T17:23:25;7.10;99.90
19483;DHT22;9882;51.166;6.992;2023-01-09T17:25:57;7.10;99.90
19483;DHT22;9882;51.166;6.992;2023-01-09T17:28:46;7.00;99.90
19483;DHT22;9882;51.166;6.992;2023-01-09T17:31:17;6.90;99.90
19483;DHT22;9882;51.166;6.992;2023-01-09T17:33:46;6.90;99.90
19483;DHT22;9882;51.166;6.992;2023-01-09T17:36:24;6.70;99.90
19483;DHT22;9882;51.166;6.992;2023-01-09T17:38:57;6.80;99.90
19483;DHT22;9882;51.166;6.992;2023-01-09T17:41:27;6.90;99.90
19483;DHT22;9882;51.166;6.992;2023-01-09T17:43:57;7.10;99.90
19483;DHT22;9882;51.166;6.992;2023-01-09T17:46:30;7.10;99.90